Bueyeros, New Mexico
Current Conditions -  °F | °C
As of 5:55 PM on Monday 24 Nov 2014 (Local Time) from KCAO Reporting Station
Clear Clear  
Wind Chill: 28°   Ceiling: Unl
Heat Index: 34°   Visibility: 10mi
Dew Point: 10°   Wind: 7mph
Humidity: 37%   Direction: 320°NW
Pressure: 30.1"   Gusts: NA
Location:  36.2639°N, 103.376°W
Report Text: KCAO 250055Z AUTO 32006KT 10SM CLR 01/M12 A3010 RMK AO2 SLP215 T00111122
Loading
Personal Weather Stations






























Interactive Weather Map New forecast layout! Learn more

10-Day Weather Forecast

Advertisements
Track Severe Weather on mobile